createdAt,value
2022-08-11T00:00:06.047Z,39.18
2022-08-11T00:02:14.995Z,38.69
2022-08-11T00:04:20.720Z,39.09
2022-08-11T00:06:26.815Z,38.78
2022-08-11T00:08:32.944Z,39.12
2022-08-11T00:10:36.118Z,39.06
2022-08-11T00:12:39.271Z,39.20
2022-08-11T00:14:43.780Z,38.81
2022-08-11T00:16:56.784Z,39.66
2022-08-11T00:19:01.986Z,40.33
2022-08-11T00:21:04.956Z,39.99
2022-08-11T00:23:10.588Z,39.82
2022-08-11T00:25:15.335Z,39.63
2022-08-11T00:27:18.340Z,39.42
2022-08-11T00:29:23.231Z,39.43
2022-08-11T00:31:31.201Z,40.14
2022-08-11T00:33:44.147Z,40.56
2022-08-11T00:35:57.192Z,40.18
2022-08-11T00:38:01.530Z,40.00
2022-08-11T00:40:10.144Z,40.92
2022-08-11T00:42:25.673Z,41.00
2022-08-11T00:44:43.131Z,41.76
2022-08-11T00:46:58.848Z,41.19
2022-08-11T00:49:18.162Z,40.58
2022-08-11T00:51:57.583Z,41.84
2022-08-11T00:54:06.789Z,41.42
2022-08-11T00:56:44.272Z,41.00
2022-08-11T00:59:34.290Z,40.36
2022-08-11T01:01:57.946Z,41.09
2022-08-11T01:04:18.270Z,40.03
2022-08-11T01:06:45.350Z,40.73
2022-08-11T01:09:18.849Z,40.52
2022-08-11T01:11:55.884Z,42.04
2022-08-11T01:14:58.362Z,41.31
2022-08-11T01:17:55.356Z,41.61
2022-08-11T01:20:48.022Z,41.32
2022-08-11T01:23:15.760Z,41.79
2022-08-11T01:25:57.279Z,42.29
2022-08-11T01:28:24.861Z,42.21
2022-08-11T01:31:04.564Z,43.58
2022-08-11T01:34:09.703Z,41.92
2022-08-11T01:36:56.649Z,41.77
2022-08-11T01:39:26.067Z,42.92
2022-08-11T01:42:13.515Z,42.37
2022-08-11T01:44:46.719Z,43.41
2022-08-11T01:46:55.512Z,41.95
2022-08-11T01:50:05.817Z,41.50
2022-08-11T01:51:47.228Z,42.11
2022-08-11T01:53:58.329Z,41.85
2022-08-11T01:56:24.014Z,41.33
2022-08-11T01:58:43.217Z,40.74
2022-08-11T02:00:56.199Z,40.93
2022-08-11T02:03:13.779Z,41.65
2022-08-11T02:05:27.499Z,41.73
2022-08-11T02:07:37.062Z,41.37
2022-08-11T02:09:54.531Z,40.93
2022-08-11T02:12:05.904Z,40.78
2022-08-11T02:14:25.056Z,41.43
2022-08-11T02:16:44.054Z,41.84
2022-08-11T02:19:11.151Z,41.99
2022-08-11T02:21:46.315Z,41.74
2022-08-11T02:24:05.152Z,41.57
2022-08-11T02:26:12.485Z,41.98
2022-08-11T02:28:28.899Z,42.08
2022-08-11T02:30:36.570Z,42.12
2022-08-11T02:33:04.514Z,41.65
2022-08-11T02:35:16.288Z,41.20
2022-08-11T02:37:25.833Z,44.03
2022-08-11T02:39:40.367Z,43.01
2022-08-11T02:42:32.799Z,43.08
2022-08-11T02:44:44.973Z,42.38
2022-08-11T02:46:56.884Z,42.45
2022-08-11T02:49:23.995Z,42.80
2022-08-11T02:51:40.814Z,45.98
2022-08-11T02:53:56.339Z,50.55
2022-08-11T02:56:09.945Z,47.75
2022-08-11T02:58:17.672Z,45.86
2022-08-11T03:00:28.125Z,44.94
2022-08-11T03:02:53.015Z,44.26
2022-08-11T03:05:14.353Z,44.14
2022-08-11T03:07:28.537Z,43.54
2022-08-11T03:09:47.864Z,43.57
2022-08-11T03:12:20.603Z,44.17
2022-08-11T03:14:47.961Z,43.86
2022-08-11T03:16:57.954Z,44.15
2022-08-11T03:19:13.686Z,44.13
2022-08-11T03:21:22.064Z,44.15
2022-08-11T03:23:31.134Z,44.51
2022-08-11T03:25:46.368Z,45.68
2022-08-11T03:27:55.085Z,45.38
2022-08-11T03:30:07.034Z,45.01
2022-08-11T03:32:20.494Z,44.59
2022-08-11T03:34:26.595Z,44.72
2022-08-11T03:37:16.084Z,45.82
2022-08-11T03:39:24.538Z,46.54
2022-08-11T03:42:01.949Z,45.41
2022-08-11T03:44:21.364Z,45.08
2022-08-11T03:46:39.646Z,45.19
2022-08-11T03:48:55.529Z,45.31
2022-08-11T03:51:14.644Z,44.34
2022-08-11T03:53:28.117Z,44.42
2022-08-11T03:55:55.212Z,43.91
2022-08-11T03:58:41.860Z,44.74
2022-08-11T04:01:32.450Z,44.46
2022-08-11T04:04:09.962Z,45.46
2022-08-11T04:06:49.014Z,46.01
2022-08-11T04:09:25.167Z,45.76
2022-08-11T04:12:14.828Z,45.39
2022-08-11T04:15:07.994Z,45.10
2022-08-11T04:17:45.522Z,44.95
2022-08-11T04:20:19.872Z,46.01
2022-08-11T04:22:51.185Z,46.88
2022-08-11T04:25:24.469Z,47.17
2022-08-11T04:27:55.214Z,46.65
2022-08-11T04:30:09.106Z,46.53
2022-08-11T04:32:35.782Z,46.07
2022-08-11T04:34:50.586Z,46.79
2022-08-11T04:37:34.568Z,47.93
2022-08-11T04:39:59.616Z,47.13
2022-08-11T04:42:52.804Z,47.04
2022-08-11T04:45:25.289Z,46.08
2022-08-11T04:48:08.318Z,46.57
2022-08-11T04:50:45.502Z,47.02
2022-08-11T04:53:52.403Z,46.88
2022-08-11T04:56:24.586Z,46.44
2022-08-11T04:59:08.359Z,48.11
2022-08-11T05:01:44.180Z,47.41
2022-08-11T05:04:43.455Z,48.14
2022-08-11T05:07:10.512Z,51.20
2022-08-11T05:09:27.135Z,51.82
2022-08-11T05:11:51.473Z,53.42
2022-08-11T05:14:54.502Z,55.18
2022-08-11T05:17:19.034Z,56.55
2022-08-11T05:19:52.312Z,59.03
2022-08-11T05:22:16.081Z,59.52
2022-08-11T05:24:41.054Z,60.20
2022-08-11T05:27:09.951Z,61.25
2022-08-11T05:29:56.455Z,61.82
2022-08-11T05:32:20.227Z,63.26
2022-08-11T05:34:46.029Z,62.41
2022-08-11T05:36:56.423Z,62.82
2022-08-11T05:39:36.486Z,62.46
2022-08-11T05:41:59.091Z,62.85
2022-08-11T05:44:23.042Z,63.51
2022-08-11T05:46:45.700Z,63.51
2022-08-11T05:49:07.464Z,62.22
2022-08-11T05:51:30.447Z,60.70
2022-08-11T05:53:51.629Z,61.07
2022-08-11T05:56:12.594Z,59.94
2022-08-11T05:58:15.716Z,59.17
2022-08-11T06:00:19.941Z,59.47
2022-08-11T06:02:22.999Z,60.43
2022-08-11T06:04:27.671Z,60.81
2022-08-11T06:06:32.477Z,59.41
2022-08-11T06:08:36.378Z,58.42
2022-08-11T06:10:42.305Z,58.95
2022-08-11T06:12:46.166Z,58.79
2022-08-11T06:14:52.201Z,57.96
2022-08-11T06:17:00.639Z,58.35
2022-08-11T06:19:05.283Z,57.74
2022-08-11T06:21:12.428Z,56.86
2022-08-11T06:23:19.529Z,57.03
2022-08-11T06:25:24.342Z,56.85
2022-08-11T06:27:28.248Z,57.21
2022-08-11T06:29:38.275Z,56.88
2022-08-11T06:31:57.814Z,55.95
2022-08-11T06:34:11.734Z,54.58
2022-08-11T06:36:35.806Z,55.52
2022-08-11T06:38:55.041Z,54.37
2022-08-11T06:41:18.864Z,54.60
2022-08-11T06:43:25.844Z,54.19
2022-08-11T06:45:32.213Z,54.66
2022-08-11T06:47:36.194Z,54.36
2022-08-11T06:50:04.040Z,53.84
2022-08-11T06:52:34.759Z,53.03
2022-08-11T06:54:38.947Z,53.88
2022-08-11T06:57:28.759Z,53.86
2022-08-11T06:59:50.643Z,53.69
2022-08-11T07:02:02.344Z,53.51
2022-08-11T07:04:08.256Z,53.30
2022-08-11T07:06:35.984Z,52.37
2022-08-11T07:09:37.903Z,51.32
2022-08-11T07:12:47.967Z,49.90
2022-08-11T07:15:11.192Z,50.13
2022-08-11T07:17:17.987Z,49.45
2022-08-11T07:19:44.402Z,49.96
2022-08-11T07:22:06.202Z,49.50
2022-08-11T07:24:59.737Z,48.54
2022-08-11T07:27:14.760Z,48.71
2022-08-11T07:29:21.376Z,48.71
2022-08-11T07:31:32.725Z,47.93
2022-08-11T07:34:08.455Z,47.63
2022-08-11T07:36:09.164Z,47.45
2022-08-11T07:38:25.322Z,47.08
2022-08-11T07:40:29.127Z,46.53
2022-08-11T07:42:35.854Z,46.56
2022-08-11T07:44:56.210Z,46.20
2022-08-11T07:47:17.545Z,46.26
2022-08-11T07:49:38.227Z,45.75
2022-08-11T07:52:00.307Z,45.75
2022-08-11T07:54:16.695Z,45.35
2022-08-11T07:56:37.097Z,45.48
2022-08-11T07:59:07.489Z,44.90
2022-08-11T08:01:31.256Z,44.66
2022-08-11T08:03:54.439Z,44.39
2022-08-11T08:06:35.798Z,44.22
2022-08-11T08:08:59.837Z,43.75
2022-08-11T08:11:27.315Z,43.25
2022-08-11T08:13:50.787Z,42.58
2022-08-11T08:16:12.370Z,42.60
2022-08-11T08:18:26.162Z,42.58
2022-08-11T08:20:32.629Z,42.16
2022-08-11T08:22:38.388Z,41.58
2022-08-11T08:24:42.752Z,41.69
2022-08-11T08:27:01.228Z,41.36
2022-08-11T08:29:25.845Z,41.33
2022-08-11T08:31:28.708Z,40.22
2022-08-11T08:33:33.775Z,39.56
2022-08-11T08:35:38.100Z,39.43
2022-08-11T08:37:58.952Z,38.94
2022-08-11T08:40:01.807Z,37.98
2022-08-11T08:42:11.146Z,37.95
2022-08-11T08:44:37.115Z,38.15
2022-08-11T08:46:43.777Z,37.13
2022-08-11T08:48:49.110Z,37.02
2022-08-11T08:51:15.321Z,37.00
2022-08-11T08:53:22.864Z,36.36
2022-08-11T08:55:28.572Z,36.07
2022-08-11T08:57:38.946Z,36.12
2022-08-11T08:59:49.106Z,35.90
2022-08-11T09:01:58.883Z,35.59
2022-08-11T09:04:11.242Z,35.54
2022-08-11T09:06:16.705Z,35.17
2022-08-11T09:08:21.687Z,34.80
2022-08-11T09:10:25.898Z,34.85
2022-08-11T09:12:38.546Z,34.81
2022-08-11T09:15:04.501Z,34.79
2022-08-11T09:17:07.421Z,34.29
2022-08-11T09:19:14.235Z,34.31
2022-08-11T09:21:36.867Z,34.27
2022-08-11T09:24:08.735Z,35.15
2022-08-11T09:26:31.372Z,34.27
2022-08-11T09:28:36.778Z,34.38
2022-08-11T09:30:42.756Z,34.00
2022-08-11T09:32:45.937Z,33.99
2022-08-11T09:34:52.518Z,34.20
2022-08-11T09:37:28.337Z,34.04
2022-08-11T09:39:57.584Z,33.41
2022-08-11T09:42:04.188Z,32.47
2022-08-11T09:44:27.248Z,32.27
2022-08-11T09:46:31.378Z,32.50
2022-08-11T09:48:39.296Z,32.28
2022-08-11T09:50:43.579Z,32.31
2022-08-11T09:53:16.771Z,31.42
2022-08-11T09:55:11.982Z,31.06
2022-08-11T09:57:32.782Z,31.50
2022-08-11T09:59:36.595Z,31.35
2022-08-11T10:01:49.305Z,31.17
2022-08-11T10:03:53.646Z,31.38
2022-08-11T10:06:19.104Z,31.29
2022-08-11T10:08:23.910Z,30.91
2022-08-11T10:10:27.065Z,30.64
2022-08-11T10:12:36.031Z,30.42
2022-08-11T10:15:02.414Z,30.50
2022-08-11T10:17:08.205Z,30.64
2022-08-11T10:19:11.350Z,30.27
2022-08-11T10:21:24.314Z,29.68
2022-08-11T10:24:00.618Z,29.90
2022-08-11T10:26:26.465Z,29.56
2022-08-11T10:28:44.718Z,29.03
2022-08-11T10:31:12.580Z,28.65
2022-08-11T10:33:39.181Z,28.93
2022-08-11T10:35:49.446Z,28.60
2022-08-11T10:38:07.783Z,28.20
2022-08-11T10:40:16.810Z,28.23
2022-08-11T10:42:57.128Z,27.44
2022-08-11T10:45:02.407Z,27.37
2022-08-11T10:47:23.869Z,27.17
2022-08-11T10:49:28.263Z,26.27
2022-08-11T10:51:52.121Z,26.48
2022-08-11T10:54:15.994Z,25.86
2022-08-11T10:56:38.204Z,25.75
2022-08-11T10:58:49.222Z,25.59
2022-08-11T11:00:56.940Z,25.29
2022-08-11T11:03:22.063Z,24.72
2022-08-11T11:05:28.357Z,24.30
2022-08-11T11:07:44.355Z,24.41
2022-08-11T11:09:52.177Z,24.18
2022-08-11T11:12:18.593Z,24.50
2022-08-11T11:14:45.891Z,24.93
2022-08-11T11:17:21.424Z,24.40
2022-08-11T11:19:27.071Z,24.51
2022-08-11T11:21:30.691Z,24.23
2022-08-11T11:23:39.544Z,24.19
2022-08-11T11:26:10.702Z,24.50
2022-08-11T11:28:34.626Z,24.49
2022-08-11T11:30:48.376Z,23.54
2022-08-11T11:33:04.311Z,22.91
2022-08-11T11:35:26.674Z,22.89
2022-08-11T11:37:33.733Z,22.62
2022-08-11T11:39:37.758Z,21.92
2022-08-11T11:41:43.672Z,22.20
2022-08-11T11:43:47.231Z,22.32
2022-08-11T11:45:50.239Z,21.23
2022-08-11T11:47:55.325Z,22.67
2022-08-11T11:49:58.742Z,24.43
2022-08-11T11:52:02.061Z,23.53
2022-08-11T11:54:06.003Z,23.32
2022-08-11T11:56:15.082Z,23.33
2022-08-11T11:58:37.317Z,22.34
2022-08-11T12:00:59.903Z,21.87
2022-08-11T12:03:06.083Z,21.18
2022-08-11T12:05:11.336Z,20.95
2022-08-11T12:07:31.668Z,20.86
2022-08-11T12:09:34.952Z,21.45
2022-08-11T12:11:55.089Z,21.27
2022-08-11T12:14:04.707Z,21.88
2022-08-11T12:16:31.199Z,21.14
2022-08-11T12:18:39.638Z,21.05
2022-08-11T12:20:43.539Z,21.54
2022-08-11T12:23:04.147Z,20.82
2022-08-11T12:25:25.439Z,21.26
2022-08-11T12:27:29.218Z,21.23
2022-08-11T12:29:34.889Z,20.80
2022-08-11T12:31:40.201Z,20.25
2022-08-11T12:33:43.858Z,20.53
2022-08-11T12:36:01.255Z,19.53
2022-08-11T12:38:09.542Z,19.50
2022-08-11T12:40:43.007Z,19.26
2022-08-11T12:43:20.682Z,19.44
2022-08-11T12:45:31.610Z,18.68
2022-08-11T12:48:57.497Z,19.02
2022-08-11T12:50:36.071Z,18.61
2022-08-11T12:52:46.977Z,18.98
2022-08-11T12:54:58.696Z,19.74
2022-08-11T12:57:36.286Z,19.76
2022-08-11T12:59:59.330Z,19.53
2022-08-11T13:02:21.906Z,19.34
2022-08-11T13:04:46.047Z,18.51
2022-08-11T13:06:53.673Z,19.39
2022-08-11T13:09:01.059Z,19.54
2022-08-11T13:11:22.950Z,20.26
2022-08-11T13:13:55.458Z,20.06
2022-08-11T13:15:50.740Z,18.95
2022-08-11T13:17:56.229Z,18.66
2022-08-11T13:20:00.426Z,18.71
2022-08-11T13:22:07.386Z,18.07
2022-08-11T13:24:10.404Z,18.31
2022-08-11T13:26:14.092Z,17.66
2022-08-11T13:28:19.517Z,18.26
2022-08-11T13:30:47.170Z,18.78
2022-08-11T13:32:51.017Z,19.70
2022-08-11T13:34:55.403Z,20.05
2022-08-11T13:37:00.510Z,20.33
2022-08-11T13:39:04.547Z,20.75
2022-08-11T13:41:28.036Z,20.62
2022-08-11T13:43:31.111Z,19.95
2022-08-11T13:45:36.397Z,18.57
2022-08-11T13:47:41.922Z,18.32
2022-08-11T13:49:47.932Z,18.03
2022-08-11T13:51:53.402Z,17.94
2022-08-11T13:53:57.889Z,18.81
2022-08-11T13:56:05.711Z,19.20
2022-08-11T13:58:19.073Z,19.42
2022-08-11T14:00:28.136Z,19.75
2022-08-11T14:02:31.857Z,19.87
2022-08-11T14:04:40.953Z,19.26
2022-08-11T14:06:50.185Z,18.19
2022-08-11T14:08:56.198Z,18.37
2022-08-11T14:12:21.393Z,18.24
2022-08-11T14:13:48.288Z,17.38
2022-08-11T14:15:53.347Z,18.23
2022-08-11T14:18:03.290Z,17.59
2022-08-11T14:20:38.540Z,17.94
2022-08-11T14:22:34.427Z,17.98
2022-08-11T14:24:41.108Z,17.44
2022-08-11T14:26:45.282Z,18.34
2022-08-11T14:28:48.771Z,18.76
2022-08-11T14:31:01.186Z,18.63
2022-08-11T14:33:17.128Z,18.37
2022-08-11T14:35:22.786Z,18.92
2022-08-11T14:37:27.918Z,19.00
2022-08-11T14:39:35.959Z,19.50
2022-08-11T14:42:10.067Z,18.86
2022-08-11T14:44:32.297Z,17.74
2022-08-11T14:46:52.878Z,17.69
2022-08-11T14:48:56.988Z,17.64
2022-08-11T14:51:00.459Z,17.29
2022-08-11T14:53:05.912Z,17.48
2022-08-11T14:55:27.550Z,17.45
2022-08-11T14:57:56.195Z,17.48
2022-08-11T14:59:58.985Z,17.66
2022-08-11T15:02:32.691Z,18.11
2022-08-11T15:04:37.019Z,17.01
2022-08-11T15:06:40.030Z,17.80
2022-08-11T15:08:58.071Z,17.46
2022-08-11T15:11:21.164Z,17.23
2022-08-11T15:13:25.582Z,17.25
2022-08-11T15:15:46.962Z,17.08
2022-08-11T15:17:52.586Z,17.14
2022-08-11T15:20:16.817Z,17.28
2022-08-11T15:22:37.721Z,17.61
2022-08-11T15:24:40.588Z,17.05
2022-08-11T15:27:01.519Z,17.58
2022-08-11T15:29:23.672Z,16.87
2022-08-11T15:31:49.565Z,16.76
2022-08-11T15:34:12.653Z,16.93
2022-08-11T15:36:37.404Z,17.06
2022-08-11T15:38:44.941Z,17.58
2022-08-11T15:41:05.268Z,17.31
2022-08-11T15:43:30.060Z,16.88
2022-08-11T15:45:53.195Z,16.70
2022-08-11T15:48:05.894Z,16.48
2022-08-11T15:50:14.733Z,16.48
2022-08-11T15:52:22.691Z,16.80
2022-08-11T15:54:31.068Z,16.79
2022-08-11T15:56:36.112Z,16.81
2022-08-11T15:59:40.565Z,16.85
2022-08-11T16:01:44.598Z,17.10
2022-08-11T16:04:12.559Z,16.79
2022-08-11T16:06:16.283Z,16.96
2022-08-11T16:08:25.256Z,17.28
2022-08-11T16:10:37.031Z,16.85
2022-08-11T16:13:15.904Z,16.59
2022-08-11T16:15:36.229Z,16.50
2022-08-11T16:17:45.392Z,16.97
2022-08-11T16:19:52.649Z,16.63
2022-08-11T16:21:57.666Z,16.25
2022-08-11T16:24:02.948Z,16.78
2022-08-11T16:27:09.502Z,16.32
2022-08-11T16:28:33.013Z,15.92
2022-08-11T16:30:38.632Z,15.43
2022-08-11T16:32:45.465Z,16.02
2022-08-11T16:35:11.995Z,15.99
2022-08-11T16:37:32.649Z,15.53
2022-08-11T16:39:36.362Z,15.88
2022-08-11T16:42:00.739Z,15.79
2022-08-11T16:44:36.907Z,16.34
2022-08-11T16:46:58.065Z,16.49
2022-08-11T16:49:04.026Z,16.89
2022-08-11T16:51:08.081Z,16.63
2022-08-11T16:53:11.068Z,16.96
2022-08-11T16:55:13.933Z,17.38
2022-08-11T16:57:56.343Z,17.58
2022-08-11T17:00:03.140Z,17.00
2022-08-11T17:02:09.853Z,17.29
2022-08-11T17:04:38.494Z,17.31
2022-08-11T17:07:03.344Z,17.04
2022-08-11T17:09:45.912Z,16.75
2022-08-11T17:12:14.031Z,16.23
2022-08-11T17:14:34.964Z,16.21
2022-08-11T17:16:42.003Z,16.30
2022-08-11T17:18:51.137Z,16.33
2022-08-11T17:20:55.608Z,16.70
2022-08-11T17:23:28.551Z,16.62
2022-08-11T17:25:32.372Z,17.00
2022-08-11T17:27:56.549Z,17.84
2022-08-11T17:30:02.507Z,17.61
2022-08-11T17:32:24.933Z,17.41
2022-08-11T17:34:46.687Z,17.43
2022-08-11T17:36:52.056Z,17.60
2022-08-11T17:38:54.930Z,17.77
2022-08-11T17:41:23.251Z,18.00
2022-08-11T17:43:44.584Z,18.01
2022-08-11T17:46:08.163Z,18.21
2022-08-11T17:48:27.906Z,17.49
2022-08-11T17:50:31.750Z,17.82
2022-08-11T17:52:54.259Z,17.89
2022-08-11T17:55:16.335Z,18.49
2022-08-11T17:57:58.857Z,18.84
2022-08-11T18:00:03.055Z,18.62
2022-08-11T18:02:34.759Z,19.49
2022-08-11T18:04:38.250Z,19.61
2022-08-11T18:06:42.863Z,20.11
2022-08-11T18:09:06.230Z,20.76
2022-08-11T18:12:10.507Z,20.87
2022-08-11T18:14:09.638Z,22.09
2022-08-11T18:16:30.684Z,22.75
2022-08-11T18:18:51.053Z,23.17
2022-08-11T18:21:11.825Z,23.27
2022-08-11T18:23:46.096Z,23.76
2022-08-11T18:26:11.115Z,25.09
2022-08-11T18:28:33.621Z,25.33
2022-08-11T18:31:03.534Z,25.36
2022-08-11T18:36:13.752Z,26.49
2022-08-11T18:38:36.343Z,27.17
2022-08-11T18:40:57.092Z,27.00
2022-08-11T18:43:26.935Z,27.70
2022-08-11T18:45:48.345Z,28.00
2022-08-11T18:48:23.172Z,28.24
2022-08-11T18:50:53.550Z,28.41
2022-08-11T18:53:29.684Z,29.02
2022-08-11T18:55:51.881Z,29.08
2022-08-11T18:58:13.949Z,29.13
2022-08-11T19:00:35.932Z,29.41
2022-08-11T19:02:58.248Z,29.73
2022-08-11T19:05:20.426Z,30.11
2022-08-11T19:08:03.848Z,29.93
2022-08-11T19:10:25.317Z,30.56
2022-08-11T19:12:51.583Z,30.56
2022-08-11T19:15:13.333Z,30.55
2022-08-11T19:17:43.395Z,31.12
2022-08-11T19:20:06.890Z,31.31
2022-08-11T19:22:28.529Z,30.83
2022-08-11T19:24:50.664Z,31.21
2022-08-11T19:27:12.371Z,31.28
2022-08-11T19:30:07.193Z,30.20
2022-08-11T19:32:17.095Z,31.23
2022-08-11T19:34:41.204Z,32.23
2022-08-11T19:37:02.486Z,31.25
2022-08-11T19:39:23.378Z,31.75
2022-08-11T19:41:52.212Z,32.25
2022-08-11T19:44:17.951Z,32.46
2022-08-11T19:46:40.956Z,32.66
2022-08-11T19:49:03.310Z,32.75
2022-08-11T19:51:26.415Z,32.61
2022-08-11T19:53:48.602Z,32.27
2022-08-11T19:56:11.739Z,32.45
2022-08-11T19:58:33.301Z,32.21
2022-08-11T20:00:54.222Z,32.24
2022-08-11T20:03:14.810Z,31.92
2022-08-11T20:05:34.911Z,31.26
2022-08-11T20:07:57.143Z,32.24
2022-08-11T20:10:21.053Z,32.07
2022-08-11T20:12:43.553Z,32.23
2022-08-11T20:15:05.816Z,31.85
2022-08-11T20:17:29.597Z,31.96
2022-08-11T20:19:56.311Z,31.73
2022-08-11T20:22:17.845Z,31.58
2022-08-11T20:24:40.242Z,31.96
2022-08-11T20:27:01.407Z,31.69
2022-08-11T20:29:25.244Z,31.57
2022-08-11T20:31:45.256Z,31.74
2022-08-11T20:34:06.903Z,31.62
2022-08-11T20:36:30.480Z,31.91
2022-08-11T20:38:52.389Z,32.04
2022-08-11T20:41:16.210Z,32.06
2022-08-11T20:44:06.644Z,32.09
2022-08-11T20:46:21.019Z,31.82
2022-08-11T20:48:42.014Z,32.21
2022-08-11T20:51:06.484Z,32.26
2022-08-11T20:53:47.402Z,32.50
2022-08-11T20:56:08.929Z,32.04
2022-08-11T20:59:02.376Z,32.61
2022-08-11T21:01:20.562Z,32.29
2022-08-11T21:03:55.474Z,32.93
2022-08-11T21:06:31.273Z,33.52
2022-08-11T21:08:55.444Z,33.12
2022-08-11T21:11:16.015Z,32.72
2022-08-11T21:13:55.646Z,32.67
2022-08-11T21:16:25.298Z,32.71
2022-08-11T21:18:49.593Z,32.97
2022-08-11T21:21:10.247Z,32.77
2022-08-11T21:23:37.478Z,33.43
2022-08-11T21:26:03.906Z,33.04
2022-08-11T21:28:27.674Z,33.18
2022-08-11T21:30:51.739Z,33.44
2022-08-11T21:33:19.178Z,33.48
2022-08-11T21:35:44.955Z,33.70
2022-08-11T21:38:09.025Z,33.17
2022-08-11T21:40:30.951Z,33.26
2022-08-11T21:42:55.540Z,33.05
2022-08-11T21:45:17.877Z,33.74
2022-08-11T21:47:43.143Z,33.66
2022-08-11T21:50:05.327Z,33.49
2022-08-11T21:52:26.036Z,33.95
2022-08-11T21:54:46.554Z,33.80
2022-08-11T21:57:08.573Z,33.78
2022-08-11T21:59:29.500Z,33.68
2022-08-11T22:01:51.833Z,33.52
2022-08-11T22:04:14.755Z,33.29
2022-08-11T22:06:36.090Z,33.89
2022-08-11T22:08:56.671Z,33.57
2022-08-11T22:11:31.905Z,33.69
2022-08-11T22:14:05.677Z,33.74
2022-08-11T22:16:27.373Z,33.70
2022-08-11T22:18:49.332Z,33.89
2022-08-11T22:21:14.049Z,34.09
2022-08-11T22:23:58.074Z,33.97
2022-08-11T22:26:20.412Z,34.00
2022-08-11T22:28:43.125Z,34.05
2022-08-11T22:31:03.288Z,34.09
2022-08-11T22:33:28.467Z,34.44
2022-08-11T22:35:50.595Z,34.47
2022-08-11T22:38:14.533Z,34.88
2022-08-11T22:40:34.890Z,34.73
2022-08-11T22:42:55.271Z,35.30
2022-08-11T22:45:16.404Z,36.04
2022-08-11T22:47:40.355Z,35.14
2022-08-11T22:50:02.969Z,34.94
2022-08-11T22:52:24.090Z,35.60
2022-08-11T22:54:47.575Z,35.54
2022-08-11T22:57:08.994Z,35.16
2022-08-11T22:59:30.181Z,35.20
2022-08-11T23:01:55.435Z,35.56
2022-08-11T23:04:19.446Z,35.52
2022-08-11T23:06:40.997Z,35.48
2022-08-11T23:09:01.842Z,35.71
2022-08-11T23:11:25.266Z,36.55
2022-08-11T23:13:47.746Z,36.87
2022-08-11T23:16:08.963Z,36.03
2022-08-11T23:18:31.417Z,35.85
2022-08-11T23:20:56.096Z,35.60
2022-08-11T23:23:19.360Z,35.41
2022-08-11T23:25:40.195Z,35.46
2022-08-11T23:28:02.897Z,35.63
2022-08-11T23:30:24.903Z,35.86
2022-08-11T23:32:47.827Z,35.54
2022-08-11T23:35:40.319Z,35.61
2022-08-11T23:37:55.604Z,35.59
2022-08-11T23:40:20.191Z,35.38
2022-08-11T23:42:43.502Z,35.94
2022-08-11T23:45:09.839Z,35.91
2022-08-11T23:47:30.992Z,35.87
2022-08-11T23:49:52.474Z,35.93
2022-08-11T23:52:14.318Z,36.08
2022-08-11T23:54:37.417Z,36.26
2022-08-11T23:56:58.603Z,36.12
2022-08-11T23:59:20.521Z,37.55
